createdAt,value
2018-11-04T08:21:32.971Z,99.10
2018-11-04T08:24:01.700Z,95.60
2018-11-04T08:26:30.375Z,96.30
2018-11-04T08:28:59.047Z,97.90
2018-11-04T08:31:27.598Z,98.20
2018-11-04T08:33:56.129Z,98.20
2018-11-04T08:36:24.695Z,98.40
2018-11-04T08:38:53.055Z,99.00
2018-11-04T08:41:21.459Z,98.80
2018-11-04T08:43:49.822Z,98.90
2018-11-04T08:46:18.298Z,99.20
2018-11-04T08:48:46.872Z,99.00
2018-11-04T08:51:15.361Z,99.00
2018-11-04T08:53:44.078Z,98.80
2018-11-04T08:56:13.008Z,98.70
2018-11-04T08:58:41.762Z,98.90
2018-11-04T09:01:10.423Z,98.80
2018-11-04T09:03:39.003Z,99.10
2018-11-04T09:06:07.759Z,98.60
2018-11-04T09:08:36.512Z,98.50
2018-11-04T09:11:05.046Z,98.40
2018-11-04T09:13:33.717Z,98.20
2018-11-04T09:16:02.115Z,98.50
2018-11-04T09:18:30.627Z,98.40
2018-11-04T09:20:59.568Z,98.50
2018-11-04T09:23:28.095Z,98.80
2018-11-04T09:25:56.671Z,98.70
2018-11-04T09:28:25.265Z,98.60
2018-11-04T09:30:54.003Z,99.00
2018-11-04T09:33:22.723Z,98.50
2018-11-04T09:35:51.551Z,97.90
2018-11-04T09:38:20.007Z,98.40
2018-11-04T09:40:48.479Z,97.70
2018-11-04T09:43:16.980Z,97.70
2018-11-04T09:45:45.563Z,97.80
2018-11-04T09:48:14.510Z,97.80
2018-11-04T09:50:43.119Z,97.80
2018-11-04T09:53:11.527Z,98.00
2018-11-04T09:55:40.647Z,98.40
2018-11-04T09:58:09.455Z,97.40
2018-11-04T10:00:38.249Z,97.40
2018-11-04T10:03:06.991Z,97.10
2018-11-04T10:05:35.689Z,97.00
2018-11-04T10:08:04.539Z,96.60
2018-11-04T10:10:33.115Z,96.90
2018-11-04T10:13:02.200Z,95.80
2018-11-04T10:15:30.603Z,96.60
2018-11-04T10:17:59.367Z,95.80
2018-11-04T10:20:28.772Z,96.60
2018-11-04T10:22:56.971Z,95.80
2018-11-04T10:25:25.473Z,95.60
2018-11-04T10:27:54.136Z,95.40
2018-11-04T10:30:23.064Z,94.90
2018-11-04T10:32:51.783Z,94.20
2018-11-04T10:35:20.517Z,93.50
2018-11-04T10:37:49.371Z,92.50
2018-11-04T10:40:17.919Z,92.30
2018-11-04T10:42:46.583Z,93.50
2018-11-04T10:45:15.269Z,91.90
2018-11-04T10:47:43.959Z,92.30
2018-11-04T10:50:13.120Z,91.10
2018-11-04T10:52:41.572Z,90.10
2018-11-04T10:55:10.836Z,90.60
2018-11-04T10:57:39.306Z,90.20
2018-11-04T11:00:14.678Z,89.40
2018-11-04T11:02:43.451Z,88.90
2018-11-04T11:05:12.388Z,89.30
2018-11-04T11:07:41.159Z,89.10
2018-11-04T11:10:10.379Z,88.60
2018-11-04T11:12:39.065Z,86.60
2018-11-04T11:15:08.652Z,87.80
2018-11-04T11:17:37.115Z,87.00
2018-11-04T11:20:07.155Z,87.10
2018-11-04T11:22:35.770Z,86.80
2018-11-04T11:25:04.754Z,87.10
2018-11-04T11:27:33.390Z,86.50
2018-11-04T11:30:02.144Z,87.00
2018-11-04T11:32:30.791Z,87.60
2018-11-04T11:34:59.506Z,88.70
2018-11-04T11:37:28.277Z,86.80
2018-11-04T11:39:56.711Z,86.00
2018-11-04T11:42:25.364Z,86.60
2018-11-04T11:44:53.819Z,85.70
2018-11-04T11:47:22.243Z,85.70
2018-11-04T11:49:50.930Z,84.80
2018-11-04T11:52:19.359Z,83.90
2018-11-04T11:54:48.379Z,83.80
2018-11-04T11:57:16.903Z,84.10
2018-11-04T11:59:45.387Z,82.70
2018-11-04T12:02:14.105Z,83.40
2018-11-04T12:04:42.654Z,82.50
2018-11-04T12:07:11.525Z,82.00
2018-11-04T12:09:40.396Z,81.60
2018-11-04T12:12:08.924Z,81.90
2018-11-04T12:14:37.371Z,81.70
2018-11-04T12:17:06.253Z,81.20
2018-11-04T12:19:35.143Z,82.30
2018-11-04T12:22:03.910Z,82.20
2018-11-04T12:24:32.452Z,81.80
2018-11-04T12:27:00.855Z,80.50
2018-11-04T12:29:29.220Z,80.10
2018-11-04T12:31:57.966Z,78.80
2018-11-04T12:34:26.465Z,78.30
2018-11-04T12:36:54.995Z,79.30
2018-11-04T12:39:23.660Z,78.20
2018-11-04T12:41:52.431Z,77.40
2018-11-04T12:44:21.292Z,77.10
2018-11-04T12:46:49.825Z,77.40
2018-11-04T12:49:18.784Z,76.80
2018-11-04T12:51:47.414Z,76.60
2018-11-04T12:54:16.189Z,77.20
2018-11-04T12:56:45.147Z,77.80
2018-11-04T12:59:13.948Z,76.60
2018-11-04T13:01:42.441Z,76.10
2018-11-04T13:04:11.210Z,75.00
2018-11-04T13:06:39.896Z,74.60
2018-11-04T13:09:09.208Z,74.40
2018-11-04T13:11:38.500Z,73.70
2018-11-04T13:14:07.151Z,74.70
2018-11-04T13:16:35.774Z,75.00
2018-11-04T13:19:04.544Z,75.30
2018-11-04T13:21:34.231Z,76.40
2018-11-04T13:24:02.879Z,76.40
2018-11-04T13:26:31.616Z,76.30
2018-11-04T13:29:00.123Z,76.10
2018-11-04T13:31:28.645Z,76.40
2018-11-04T13:33:57.306Z,76.80
2018-11-04T13:36:25.780Z,76.60
2018-11-04T13:38:54.257Z,76.70
2018-11-04T13:41:23.351Z,76.70
2018-11-04T13:43:51.955Z,77.10
2018-11-04T13:46:20.426Z,77.10
2018-11-04T13:48:49.598Z,78.10
2018-11-04T13:51:18.592Z,78.30
2018-11-04T13:53:47.380Z,78.20
2018-11-04T13:56:16.091Z,77.80
2018-11-04T13:58:44.677Z,77.90
2018-11-04T14:01:13.671Z,77.10
2018-11-04T14:03:42.854Z,77.10
2018-11-04T14:06:11.354Z,77.50
2018-11-04T14:08:39.728Z,77.50
2018-11-04T14:11:08.103Z,76.40
2018-11-04T14:13:36.511Z,76.30
2018-11-04T14:16:04.999Z,76.20
2018-11-04T14:18:33.594Z,76.10
2018-11-04T14:21:02.398Z,76.70
2018-11-04T14:23:31.356Z,77.20
2018-11-04T14:26:00.067Z,77.00
2018-11-04T14:28:28.951Z,77.00
2018-11-04T14:30:57.641Z,75.70
2018-11-04T14:33:26.100Z,74.60
2018-11-04T14:35:54.702Z,73.00
2018-11-04T14:38:23.159Z,73.40
2018-11-04T14:40:51.907Z,73.00
2018-11-04T14:43:20.804Z,72.20
2018-11-04T14:45:49.580Z,70.60
2018-11-04T14:48:18.115Z,71.00
2018-11-04T14:50:46.879Z,71.70
2018-11-04T14:53:15.291Z,72.30
2018-11-04T14:55:43.771Z,73.40
2018-11-04T14:58:12.613Z,75.20
2018-11-04T15:00:41.279Z,75.10
2018-11-04T15:03:09.625Z,75.50
2018-11-04T15:05:38.166Z,76.50
2018-11-04T15:08:07.055Z,76.80
2018-11-04T15:10:35.649Z,77.40
2018-11-04T15:13:04.146Z,77.90
2018-11-04T15:15:32.843Z,78.90
2018-11-04T15:18:02.485Z,79.90
2018-11-04T15:20:31.139Z,80.90
2018-11-04T15:23:00.851Z,81.80
2018-11-04T15:25:29.700Z,82.70
2018-11-04T15:27:58.448Z,84.90
2018-11-04T15:30:28.206Z,85.00
2018-11-04T15:32:57.012Z,86.20
2018-11-04T15:35:25.427Z,86.80
2018-11-04T15:37:54.174Z,88.00
2018-11-04T15:40:22.797Z,89.10
2018-11-04T15:42:51.390Z,89.10
2018-11-04T15:45:19.737Z,90.10
2018-11-04T15:47:53.162Z,90.10
2018-11-04T15:50:21.922Z,90.30
2018-11-04T15:52:50.524Z,90.60
2018-11-04T15:55:19.030Z,91.00
2018-11-04T15:57:47.602Z,91.40
2018-11-04T16:00:16.177Z,91.50
2018-11-04T16:02:45.132Z,92.10
2018-11-04T16:05:13.569Z,92.60
2018-11-04T16:07:42.010Z,93.00
2018-11-04T16:10:11.285Z,93.40
2018-11-04T16:12:39.911Z,94.00
2018-11-04T16:15:10.527Z,93.50
2018-11-04T16:17:39.316Z,93.50
2018-11-04T16:20:09.714Z,93.70
2018-11-04T16:22:38.813Z,94.00
2018-11-04T16:25:07.849Z,93.80
2018-11-04T16:27:36.427Z,95.20
2018-11-04T16:30:06.384Z,95.20
2018-11-04T16:32:35.556Z,95.30
2018-11-04T16:35:04.135Z,95.50
2018-11-04T16:37:32.738Z,95.00
2018-11-04T16:40:01.287Z,95.40
2018-11-04T16:42:29.660Z,95.50
2018-11-04T16:44:58.368Z,95.70
2018-11-04T16:47:26.841Z,96.20
2018-11-04T16:49:55.460Z,96.40
2018-11-04T16:52:24.175Z,95.80
2018-11-04T16:54:52.711Z,95.90
2018-11-04T16:57:21.451Z,96.20
2018-11-04T16:59:50.237Z,96.00
2018-11-04T17:02:18.743Z,96.00
2018-11-04T17:04:47.736Z,96.00
2018-11-04T17:07:16.259Z,95.60
2018-11-04T17:09:44.679Z,95.50
2018-11-04T17:12:13.571Z,95.90
2018-11-04T17:14:44.643Z,96.30
2018-11-04T17:17:13.194Z,95.80
2018-11-04T17:19:44.202Z,96.10
2018-11-04T17:22:12.967Z,96.00
2018-11-04T17:24:41.715Z,96.10
2018-11-04T17:27:10.317Z,96.60
2018-11-04T17:29:38.711Z,96.30
2018-11-04T17:32:09.207Z,96.30
2018-11-04T17:34:37.747Z,97.50
2018-11-04T17:37:07.138Z,97.50
2018-11-04T17:39:35.661Z,97.30
2018-11-04T17:42:04.559Z,97.50
2018-11-04T17:44:33.380Z,97.70
2018-11-04T17:47:01.970Z,98.40
2018-11-04T17:49:30.831Z,98.20
2018-11-04T17:51:59.443Z,97.90
2018-11-04T17:54:28.313Z,97.90
2018-11-04T17:56:56.835Z,98.10
2018-11-04T17:59:25.417Z,98.30
2018-11-04T18:01:53.918Z,98.30
2018-11-04T18:04:22.844Z,98.50
2018-11-04T18:06:51.835Z,98.30
2018-11-04T18:09:20.343Z,97.70
2018-11-04T18:11:49.211Z,97.50
2018-11-04T18:14:19.085Z,97.50
2018-11-04T18:16:47.847Z,97.30
2018-11-04T18:19:16.527Z,97.50
2018-11-04T18:21:45.539Z,97.80
2018-11-04T18:24:14.215Z,98.70
2018-11-04T18:26:42.715Z,98.10
2018-11-04T18:29:11.284Z,98.90
2018-11-04T18:31:40.263Z,99.20
2018-11-04T18:34:08.660Z,98.80
2018-11-04T18:36:37.618Z,98.50
2018-11-04T18:39:07.695Z,99.20
2018-11-04T18:41:36.675Z,99.10
2018-11-04T18:44:05.577Z,99.20
2018-11-04T18:46:33.948Z,99.30
2018-11-04T18:49:05.788Z,99.40
2018-11-04T18:51:34.375Z,99.10
2018-11-04T18:54:03.353Z,99.60
2018-11-04T18:56:34.999Z,99.70
2018-11-04T18:59:03.849Z,99.10
2018-11-04T19:01:32.677Z,99.00
2018-11-04T19:04:01.517Z,99.50
2018-11-04T19:06:30.088Z,99.50
2018-11-04T19:08:58.443Z,99.60
2018-11-04T19:11:27.930Z,99.20
2018-11-04T19:13:56.830Z,99.80
2018-11-04T19:16:25.467Z,99.90
2018-11-04T19:18:53.929Z,99.90
2018-11-04T19:21:22.620Z,99.90
2018-11-04T19:23:50.987Z,99.90
2018-11-04T19:26:19.567Z,99.90
2018-11-04T19:28:48.363Z,99.90
2018-11-04T19:31:17.098Z,99.90
2018-11-04T19:33:45.735Z,99.90
2018-11-04T19:36:14.375Z,99.90
2018-11-04T19:38:43.443Z,99.90
2018-11-04T19:41:12.107Z,99.90
2018-11-04T19:43:40.825Z,99.90
2018-11-04T19:46:09.747Z,99.90
2018-11-04T19:48:38.539Z,99.90
2018-11-04T19:51:07.310Z,99.90
2018-11-04T19:53:35.730Z,99.90
2018-11-04T19:56:04.743Z,99.90
2018-11-04T19:58:33.509Z,99.90
2018-11-04T20:01:02.215Z,99.90
2018-11-04T20:03:30.894Z,99.90
2018-11-04T20:05:59.663Z,99.90
2018-11-04T20:08:28.315Z,99.90
2018-11-04T20:10:56.959Z,99.90
2018-11-04T20:13:31.355Z,99.90
2018-11-04T20:16:00.136Z,99.90
2018-11-04T20:18:34.208Z,99.90
2018-11-04T20:21:02.934Z,99.90
2018-11-04T20:23:31.339Z,99.90
2018-11-04T20:26:01.951Z,99.90
2018-11-04T20:28:30.467Z,99.90
2018-11-04T20:30:59.079Z,99.90
2018-11-04T20:33:27.743Z,99.90
2018-11-04T20:35:56.600Z,99.90
2018-11-04T20:38:30.507Z,99.90
2018-11-04T20:41:05.025Z,99.90
2018-11-04T20:43:33.537Z,99.90
2018-11-04T20:46:02.342Z,99.90
2018-11-04T20:50:40.108Z,99.90
2018-11-04T20:53:09.004Z,99.90
2018-11-04T20:55:43.110Z,99.90
2018-11-04T20:58:12.100Z,99.90
2018-11-04T21:00:40.416Z,99.90
2018-11-04T21:03:08.807Z,99.90
2018-11-04T21:05:37.315Z,99.90
2018-11-04T21:08:06.481Z,99.90
2018-11-04T21:10:35.233Z,99.90
2018-11-04T21:13:03.775Z,99.90
2018-11-04T21:15:32.346Z,99.90
2018-11-04T21:18:00.804Z,99.90
2018-11-04T21:20:29.305Z,99.90
2018-11-04T21:22:57.899Z,99.90
2018-11-04T21:25:26.570Z,99.90
2018-11-04T21:27:55.518Z,99.90
2018-11-04T21:30:24.767Z,99.90
2018-11-04T21:32:53.443Z,99.90
2018-11-04T21:35:22.031Z,99.90
2018-11-04T21:37:50.520Z,99.90
2018-11-04T21:40:19.141Z,99.90
2018-11-04T21:42:48.041Z,99.90
2018-11-04T21:45:16.536Z,99.90
2018-11-04T21:47:45.550Z,99.90
2018-11-04T21:50:14.372Z,99.90
2018-11-04T21:52:43.108Z,99.90
2018-11-04T21:55:12.745Z,99.90
2018-11-04T21:57:42.103Z,99.90
2018-11-04T22:00:12.427Z,99.90
2018-11-04T22:02:41.264Z,99.90
2018-11-04T22:05:10.433Z,99.90
2018-11-04T22:07:39.801Z,99.90
2018-11-04T22:10:10.712Z,99.90
2018-11-04T22:12:39.440Z,99.90
2018-11-04T22:15:08.353Z,99.90
2018-11-04T22:17:37.206Z,99.90
2018-11-04T22:20:06.267Z,99.90
2018-11-04T22:22:34.751Z,99.90
2018-11-04T22:25:03.176Z,99.90
2018-11-04T22:27:31.787Z,99.90
2018-11-04T22:30:00.187Z,99.90
2018-11-04T22:32:28.672Z,99.90
2018-11-04T22:34:57.259Z,99.90
2018-11-04T22:37:26.020Z,99.90
2018-11-04T22:39:54.655Z,99.90
2018-11-04T22:42:23.196Z,99.90
2018-11-04T22:44:51.719Z,99.90
2018-11-04T22:47:20.098Z,99.90
2018-11-04T22:49:48.559Z,99.90
2018-11-04T22:52:17.031Z,99.90
2018-11-04T22:54:45.803Z,99.90
2018-11-04T22:57:14.585Z,99.90
2018-11-04T22:59:43.315Z,99.90
2018-11-04T23:02:11.911Z,99.90
2018-11-04T23:04:46.083Z,99.90
2018-11-04T23:07:14.599Z,99.90
2018-11-04T23:09:43.153Z,99.90
2018-11-04T23:12:11.551Z,99.90
2018-11-04T23:14:40.315Z,99.90
2018-11-04T23:17:09.304Z,99.90
2018-11-04T23:19:38.199Z,99.90
2018-11-04T23:22:06.603Z,99.90
2018-11-04T23:24:34.983Z,99.90
2018-11-04T23:27:03.759Z,99.90
2018-11-04T23:29:32.039Z,99.90
2018-11-04T23:32:00.531Z,99.90
2018-11-04T23:34:29.119Z,99.90
2018-11-04T23:36:57.803Z,99.90
2018-11-04T23:39:26.282Z,99.90
2018-11-04T23:41:54.754Z,99.90
2018-11-04T23:44:23.247Z,99.90
2018-11-04T23:46:51.581Z,99.90
2018-11-04T23:49:19.824Z,99.90
2018-11-04T23:51:48.511Z,99.90
2018-11-04T23:54:16.737Z,99.90
2018-11-04T23:56:45.521Z,99.90
2018-11-04T23:59:14.251Z,99.90
